createdAt,value
2023-01-18T00:01:09.547Z,100.00
2023-01-18T00:03:38.199Z,100.00
2023-01-18T00:06:07.216Z,100.00
2023-01-18T00:08:35.832Z,100.00
2023-01-18T00:11:04.476Z,100.00
2023-01-18T00:13:31.267Z,100.00
2023-01-18T00:16:06.100Z,100.00
2023-01-18T00:18:33.069Z,100.00
2023-01-18T00:21:04.602Z,100.00
2023-01-18T00:23:31.468Z,100.00
2023-01-18T00:26:06.270Z,100.00
2023-01-18T00:28:33.376Z,100.00
2023-01-18T00:30:59.829Z,100.00
2023-01-18T00:33:26.215Z,100.00
2023-01-18T00:36:02.888Z,100.00
2023-01-18T00:38:30.127Z,100.00
2023-01-18T00:40:57.240Z,100.00
2023-01-18T00:43:38.929Z,100.00
2023-01-18T00:46:06.337Z,100.00
2023-01-18T00:48:33.271Z,100.00
2023-01-18T00:51:00.092Z,100.00
2023-01-18T00:53:26.901Z,100.00
2023-01-18T00:55:53.324Z,100.00
2023-01-18T00:58:19.701Z,100.00
2023-01-18T01:00:48.007Z,100.00
2023-01-18T01:03:15.164Z,100.00
2023-01-18T01:06:00.209Z,100.00
2023-01-18T01:08:26.767Z,100.00
2023-01-18T01:11:02.930Z,100.00
2023-01-18T01:13:48.133Z,100.00
2023-01-18T01:16:34.050Z,100.00
2023-01-18T01:19:19.225Z,100.00
2023-01-18T01:22:04.068Z,100.00
2023-01-18T01:24:48.914Z,100.00
2023-01-18T01:27:15.392Z,100.00
2023-01-18T01:29:41.853Z,100.00
2023-01-18T01:32:08.483Z,100.00
2023-01-18T01:34:35.922Z,100.00
2023-01-18T01:37:03.434Z,100.00
2023-01-18T01:39:30.548Z,100.00
2023-01-18T01:41:57.556Z,100.00
2023-01-18T01:44:24.523Z,100.00
2023-01-18T01:46:53.679Z,100.00
2023-01-18T01:49:32.864Z,100.00
2023-01-18T01:52:04.254Z,100.00
2023-01-18T01:54:37.435Z,100.00
2023-01-18T01:57:10.973Z,100.00
2023-01-18T01:59:41.988Z,100.00
2023-01-18T02:02:09.701Z,100.00
2023-01-18T02:04:36.779Z,100.00
2023-01-18T02:07:03.306Z,100.00
2023-01-18T02:09:29.661Z,100.00
2023-01-18T02:11:56.611Z,100.00
2023-01-18T02:14:26.573Z,100.00
2023-01-18T02:17:11.687Z,100.00
2023-01-18T02:20:19.944Z,100.00
2023-01-18T02:23:24.037Z,100.00
2023-01-18T02:26:28.343Z,100.00
2023-01-18T02:29:05.307Z,100.00
2023-01-18T02:31:40.157Z,100.00
2023-01-18T02:34:18.034Z,100.00
2023-01-18T02:37:03.778Z,100.00
2023-01-18T02:39:42.655Z,100.00
2023-01-18T02:42:39.936Z,100.00
2023-01-18T02:45:38.495Z,100.00
2023-01-18T02:48:07.657Z,100.00
2023-01-18T02:50:34.586Z,100.00
2023-01-18T02:53:00.994Z,100.00
2023-01-18T02:55:36.421Z,100.00
2023-01-18T02:58:09.778Z,100.00
2023-01-18T03:00:41.095Z,100.00
2023-01-18T03:03:11.241Z,100.00
2023-01-18T03:05:39.806Z,100.00
2023-01-18T03:08:16.602Z,100.00
2023-01-18T03:10:57.699Z,100.00
2023-01-18T03:14:05.422Z,100.00
2023-01-18T03:16:58.532Z,100.00
2023-01-18T03:19:57.140Z,100.00
2023-01-18T03:22:46.478Z,100.00
2023-01-18T03:25:19.023Z,100.00
2023-01-18T03:28:06.692Z,100.00
2023-01-18T03:30:53.251Z,100.00
2023-01-18T03:33:42.891Z,100.00
2023-01-18T03:36:16.517Z,100.00
2023-01-18T03:38:46.367Z,100.00
2023-01-18T03:41:14.207Z,100.00
2023-01-18T03:43:42.180Z,100.00
2023-01-18T03:46:08.917Z,100.00
2023-01-18T03:48:36.618Z,100.00
2023-01-18T03:51:26.341Z,100.00
2023-01-18T03:54:15.348Z,100.00
2023-01-18T03:56:53.887Z,100.00
2023-01-18T03:59:21.609Z,100.00
2023-01-18T04:01:49.046Z,100.00
2023-01-18T04:04:15.499Z,100.00
2023-01-18T04:06:42.464Z,100.00
2023-01-18T04:09:08.914Z,100.00
2023-01-18T04:11:35.397Z,100.00
2023-01-18T04:14:01.796Z,100.00
2023-01-18T04:16:28.253Z,100.00
2023-01-18T04:18:54.596Z,100.00
2023-01-18T04:21:21.075Z,100.00
2023-01-18T04:23:47.395Z,100.00
2023-01-18T04:26:16.656Z,100.00
2023-01-18T04:28:43.243Z,100.00
2023-01-18T04:31:09.903Z,100.00
2023-01-18T04:33:36.423Z,100.00
2023-01-18T04:36:02.892Z,100.00
2023-01-18T04:38:29.378Z,100.00
2023-01-18T04:41:02.680Z,100.00
2023-01-18T04:43:29.639Z,100.00
2023-01-18T04:45:56.811Z,100.00
2023-01-18T04:48:24.377Z,100.00
2023-01-18T04:50:51.521Z,100.00
2023-01-18T04:53:18.325Z,100.00
2023-01-18T04:55:45.626Z,100.00
2023-01-18T04:58:12.240Z,100.00
2023-01-18T05:00:39.938Z,100.00
2023-01-18T05:03:08.064Z,100.00
2023-01-18T05:05:34.605Z,100.00
2023-01-18T05:08:00.935Z,100.00
2023-01-18T05:10:27.821Z,100.00
2023-01-18T05:12:54.272Z,100.00
2023-01-18T05:15:20.773Z,100.00
2023-01-18T05:17:47.204Z,100.00
2023-01-18T05:20:13.850Z,100.00
2023-01-18T05:22:40.327Z,100.00
2023-01-18T05:25:06.834Z,100.00
2023-01-18T05:27:33.851Z,100.00
2023-01-18T05:30:01.803Z,100.00
2023-01-18T05:32:28.304Z,100.00
2023-01-18T05:34:54.698Z,100.00
2023-01-18T05:37:21.129Z,100.00
2023-01-18T05:39:47.541Z,100.00
2023-01-18T05:42:13.919Z,100.00
2023-01-18T05:44:40.921Z,100.00
2023-01-18T05:47:07.380Z,100.00
2023-01-18T05:49:33.811Z,100.00
2023-01-18T05:52:00.319Z,100.00
2023-01-18T05:54:26.666Z,100.00
2023-01-18T05:56:53.130Z,100.00
2023-01-18T05:59:19.474Z,100.00
2023-01-18T06:01:45.979Z,100.00
2023-01-18T06:04:12.413Z,100.00
2023-01-18T06:06:38.837Z,100.00
2023-01-18T06:09:05.278Z,100.00
2023-01-18T06:11:31.630Z,100.00
2023-01-18T06:13:58.046Z,100.00
2023-01-18T06:16:27.070Z,100.00
2023-01-18T06:18:53.655Z,100.00
2023-01-18T06:21:20.022Z,100.00
2023-01-18T06:23:46.437Z,100.00
2023-01-18T06:26:12.940Z,100.00
2023-01-18T06:28:39.296Z,100.00
2023-01-18T06:31:08.218Z,100.00
2023-01-18T06:33:34.950Z,100.00
2023-01-18T06:36:01.601Z,100.00
2023-01-18T06:38:29.782Z,100.00
2023-01-18T06:40:56.323Z,100.00
2023-01-18T06:43:23.134Z,100.00
2023-01-18T06:45:56.339Z,100.00
2023-01-18T06:48:26.604Z,100.00
2023-01-18T06:50:56.011Z,100.00
2023-01-18T06:53:22.658Z,100.00
2023-01-18T06:55:57.093Z,100.00
2023-01-18T06:58:25.889Z,100.00
2023-01-18T07:01:00.150Z,100.00
2023-01-18T07:03:28.828Z,100.00
2023-01-18T07:05:56.657Z,100.00
2023-01-18T07:08:23.950Z,100.00
2023-01-18T07:10:52.839Z,100.00
2023-01-18T07:13:20.070Z,100.00
2023-01-18T07:15:54.278Z,100.00
2023-01-18T07:18:20.750Z,100.00
2023-01-18T07:20:47.561Z,100.00
2023-01-18T07:23:17.050Z,100.00
2023-01-18T07:25:43.497Z,100.00
2023-01-18T07:28:10.040Z,100.00
2023-01-18T07:30:39.485Z,100.00
2023-01-18T07:33:08.000Z,100.00
2023-01-18T07:35:37.139Z,100.00
2023-01-18T07:38:04.171Z,100.00
2023-01-18T07:40:31.088Z,100.00
2023-01-18T07:43:04.827Z,100.00
2023-01-18T07:45:34.167Z,100.00
2023-01-18T07:48:02.864Z,100.00
2023-01-18T07:50:33.954Z,100.00
2023-01-18T07:53:06.728Z,100.00
2023-01-18T07:55:33.941Z,100.00
2023-01-18T07:58:03.218Z,100.00
2023-01-18T08:00:35.034Z,100.00
2023-01-18T08:03:12.719Z,100.00
2023-01-18T08:05:39.757Z,100.00
2023-01-18T08:08:11.435Z,100.00
2023-01-18T08:10:38.663Z,100.00
2023-01-18T08:13:09.146Z,100.00
2023-01-18T08:15:39.339Z,99.76
2023-01-18T08:18:07.478Z,99.81
2023-01-18T08:20:34.373Z,100.00
2023-01-18T08:23:01.762Z,99.11
2023-01-18T08:25:30.256Z,98.11
2023-01-18T08:31:22.306Z,98.93
2023-01-18T08:34:00.863Z,98.16
2023-01-18T08:43:37.258Z,100.00
2023-01-18T08:46:22.323Z,98.72
2023-01-18T08:49:49.670Z,99.09
2023-01-18T08:52:16.463Z,98.12
2023-01-18T08:54:43.248Z,98.78
2023-01-18T08:57:11.027Z,100.00
2023-01-18T08:59:37.577Z,97.02
2023-01-18T09:02:04.093Z,95.90
2023-01-18T09:04:30.733Z,99.41
2023-01-18T09:06:57.211Z,100.00
2023-01-18T09:09:23.902Z,100.00
2023-01-18T09:11:51.873Z,99.62
2023-01-18T09:14:19.068Z,96.56
2023-01-18T09:16:45.631Z,98.44
2023-01-18T09:19:12.788Z,97.16
2023-01-18T09:21:41.106Z,98.24
2023-01-18T09:24:08.030Z,98.55
2023-01-18T09:26:34.566Z,96.78
2023-01-18T09:29:10.933Z,95.77
2023-01-18T09:31:40.702Z,94.87
2023-01-18T09:34:18.967Z,92.94
2023-01-18T09:36:49.286Z,93.14
2023-01-18T09:39:16.038Z,92.34
2023-01-18T09:41:47.098Z,89.51
2023-01-18T09:44:28.862Z,90.46
2023-01-18T09:47:03.179Z,91.51
2023-01-18T09:49:52.157Z,91.77
2023-01-18T09:52:34.261Z,95.24
2023-01-18T09:55:41.887Z,96.54
2023-01-18T09:58:19.260Z,97.42
2023-01-18T10:01:07.610Z,97.21
2023-01-18T10:06:55.376Z,98.34
2023-01-18T10:09:30.080Z,97.57
2023-01-18T10:11:56.512Z,95.87
2023-01-18T10:14:48.949Z,93.99
2023-01-18T10:17:21.429Z,91.76
2023-01-18T10:19:48.336Z,89.29
2023-01-18T10:22:31.994Z,89.93
2023-01-18T10:25:10.207Z,90.99
2023-01-18T10:28:28.381Z,89.84
2023-01-18T10:34:52.083Z,93.84
2023-01-18T10:37:38.947Z,92.24
2023-01-18T10:40:09.531Z,90.15
2023-01-18T10:42:48.158Z,91.27
2023-01-18T10:45:22.742Z,92.36
2023-01-18T10:47:51.519Z,91.41
2023-01-18T10:50:42.372Z,91.10
2023-01-18T10:53:23.867Z,90.69
2023-01-18T10:56:04.989Z,89.76
2023-01-18T10:59:11.277Z,87.29
2023-01-18T11:08:40.972Z,83.94
2023-01-18T11:11:56.189Z,85.77
2023-01-18T11:14:39.797Z,82.21
2023-01-18T11:17:11.765Z,83.34
2023-01-18T11:19:41.922Z,84.17
2023-01-18T11:22:13.427Z,86.62
2023-01-18T11:24:40.481Z,86.15
2023-01-18T11:27:26.048Z,83.93
2023-01-18T11:29:56.155Z,82.08
2023-01-18T11:32:29.276Z,80.76
2023-01-18T11:35:02.836Z,79.65
2023-01-18T11:37:36.656Z,78.54
2023-01-18T11:40:41.818Z,77.97
2023-01-18T11:43:20.520Z,79.67
2023-01-18T11:46:28.134Z,81.53
2023-01-18T11:49:23.936Z,81.73
2023-01-18T11:52:42.223Z,80.56
2023-01-18T11:55:23.985Z,82.21
2023-01-18T11:57:55.368Z,81.60
2023-01-18T12:00:28.079Z,82.82
2023-01-18T12:03:05.686Z,85.59
2023-01-18T12:05:45.990Z,85.82
2023-01-18T12:08:27.166Z,86.55
2023-01-18T12:11:05.994Z,87.15
2023-01-18T12:13:55.225Z,87.34
2023-01-18T12:16:30.900Z,86.93
2023-01-18T12:19:30.085Z,87.44
2023-01-18T12:22:34.602Z,87.75
2023-01-18T12:25:18.591Z,86.38
2023-01-18T12:28:22.459Z,85.10
2023-01-18T12:31:23.513Z,86.44
2023-01-18T12:34:12.776Z,85.96
2023-01-18T12:37:02.841Z,86.49
2023-01-18T12:40:14.456Z,87.13
2023-01-18T12:42:55.563Z,85.88
2023-01-18T12:45:44.127Z,85.49
2023-01-18T12:48:13.790Z,84.82
2023-01-18T12:50:43.597Z,83.95
2023-01-18T12:53:37.786Z,84.37
2023-01-18T12:56:16.899Z,82.72
2023-01-18T12:58:44.241Z,83.56
2023-01-18T13:01:16.562Z,82.95
2023-01-18T13:03:47.281Z,86.12
2023-01-18T13:06:18.603Z,85.68
2023-01-18T13:08:52.852Z,84.55
2023-01-18T13:11:30.141Z,85.25
2023-01-18T13:14:11.557Z,86.64
2023-01-18T13:16:47.831Z,87.32
2023-01-18T13:19:24.934Z,89.40
2023-01-18T13:21:56.698Z,87.68
2023-01-18T13:24:42.739Z,88.84
2023-01-18T13:27:12.551Z,89.47
2023-01-18T13:29:40.707Z,90.28
2023-01-18T13:32:38.011Z,90.07
2023-01-18T13:35:20.446Z,89.95
2023-01-18T13:38:01.420Z,90.59
2023-01-18T13:40:43.026Z,90.14
2023-01-18T13:43:36.100Z,89.50
2023-01-18T13:46:09.010Z,89.87
2023-01-18T13:48:45.352Z,90.26
2023-01-18T13:51:43.039Z,90.56
2023-01-18T13:54:18.673Z,91.15
2023-01-18T13:57:16.828Z,93.37
2023-01-18T13:59:52.314Z,92.76
2023-01-18T14:02:25.581Z,92.65
2023-01-18T14:05:28.244Z,94.03
2023-01-18T14:07:57.965Z,94.63
2023-01-18T14:10:27.937Z,94.85
2023-01-18T14:12:57.170Z,94.58
2023-01-18T14:15:49.196Z,96.37
2023-01-18T14:18:28.486Z,96.34
2023-01-18T14:21:15.269Z,94.23
2023-01-18T14:24:06.740Z,95.26
2023-01-18T14:26:37.788Z,95.41
2023-01-18T14:29:14.387Z,95.55
2023-01-18T14:31:52.247Z,96.24
2023-01-18T14:34:43.804Z,94.98
2023-01-18T14:37:28.936Z,94.46
2023-01-18T14:40:17.885Z,95.30
2023-01-18T14:42:49.529Z,96.44
2023-01-18T14:45:24.331Z,98.30
2023-01-18T14:47:53.871Z,98.58
2023-01-18T14:50:24.911Z,99.03
2023-01-18T14:52:58.065Z,99.58
2023-01-18T14:55:34.571Z,98.18
2023-01-18T14:58:11.829Z,98.63
2023-01-18T15:04:39.073Z,100.00
2023-01-18T15:07:13.977Z,100.00
2023-01-18T15:09:45.859Z,98.98
2023-01-18T15:12:16.948Z,99.17
2023-01-18T15:14:47.400Z,99.02
2023-01-18T15:17:26.594Z,99.57
2023-01-18T15:19:58.049Z,98.82
2023-01-18T15:22:31.135Z,98.94
2023-01-18T15:24:59.514Z,98.60
2023-01-18T15:27:31.710Z,98.54
2023-01-18T15:30:00.410Z,99.62
2023-01-18T15:32:29.948Z,99.09
2023-01-18T15:34:58.235Z,99.32
2023-01-18T15:37:27.683Z,99.94
2023-01-18T15:39:57.775Z,99.14
2023-01-18T15:42:46.959Z,99.38
2023-01-18T15:45:40.441Z,99.24
2023-01-18T15:48:22.674Z,100.00
2023-01-18T15:50:58.319Z,99.41
2023-01-18T15:53:35.689Z,98.50
2023-01-18T15:56:15.451Z,97.50
2023-01-18T15:58:47.788Z,99.29
2023-01-18T16:01:16.001Z,99.37
2023-01-18T16:03:48.462Z,99.76
2023-01-18T16:06:18.896Z,100.00
2023-01-18T16:09:11.834Z,100.00
2023-01-18T16:11:39.742Z,99.80
2023-01-18T16:14:22.389Z,100.00
2023-01-18T16:16:49.487Z,100.00
2023-01-18T16:19:16.006Z,100.00
2023-01-18T16:22:04.934Z,100.00
2023-01-18T16:24:45.461Z,100.00
2023-01-18T16:27:19.037Z,100.00
2023-01-18T16:29:52.343Z,100.00
2023-01-18T16:32:21.829Z,100.00
2023-01-18T16:34:48.780Z,100.00
2023-01-18T16:37:15.328Z,100.00
2023-01-18T16:39:44.512Z,99.67
2023-01-18T16:42:12.100Z,100.00
2023-01-18T16:44:41.756Z,100.00
2023-01-18T16:47:11.819Z,99.50
2023-01-18T16:49:41.679Z,99.20
2023-01-18T16:52:13.131Z,98.79
2023-01-18T16:54:41.990Z,98.28
2023-01-18T16:57:17.907Z,98.92
2023-01-18T16:59:44.543Z,99.14
2023-01-18T17:02:11.468Z,99.21
2023-01-18T17:04:38.108Z,100.00
2023-01-18T17:07:06.721Z,99.81
2023-01-18T17:09:47.820Z,100.00
2023-01-18T17:12:15.695Z,100.00
2023-01-18T17:14:42.295Z,100.00
2023-01-18T17:17:09.784Z,100.00
2023-01-18T17:19:37.775Z,100.00
2023-01-18T17:22:04.435Z,100.00
2023-01-18T17:24:30.904Z,100.00
2023-01-18T17:28:05.155Z,100.00
2023-01-18T17:30:32.941Z,100.00
2023-01-18T17:32:59.922Z,100.00
2023-01-18T17:35:28.534Z,100.00
2023-01-18T17:38:11.394Z,100.00
2023-01-18T17:40:44.009Z,100.00
2023-01-18T17:43:28.565Z,100.00
2023-01-18T17:46:02.273Z,100.00
2023-01-18T17:48:29.314Z,100.00
2023-01-18T17:50:55.905Z,100.00
2023-01-18T17:53:22.275Z,100.00
2023-01-18T17:55:48.749Z,100.00
2023-01-18T17:58:15.238Z,100.00
2023-01-18T18:00:42.016Z,100.00
2023-01-18T18:03:09.305Z,100.00
2023-01-18T18:05:35.983Z,100.00
2023-01-18T18:08:02.523Z,100.00
2023-01-18T18:10:28.927Z,100.00
2023-01-18T18:12:57.174Z,100.00
2023-01-18T18:15:23.885Z,100.00
2023-01-18T18:17:51.031Z,100.00
2023-01-18T18:20:17.854Z,100.00
2023-01-18T18:22:44.607Z,100.00
2023-01-18T18:25:11.414Z,100.00
2023-01-18T18:27:45.344Z,100.00
2023-01-18T18:30:12.991Z,100.00
2023-01-18T18:32:39.896Z,100.00
2023-01-18T18:35:19.460Z,100.00
2023-01-18T18:37:51.660Z,100.00
2023-01-18T18:40:19.577Z,100.00
2023-01-18T18:42:56.486Z,100.00
2023-01-18T18:45:28.391Z,100.00
2023-01-18T18:47:55.196Z,100.00
2023-01-18T18:50:22.003Z,100.00
2023-01-18T18:52:48.825Z,100.00
2023-01-18T18:55:15.637Z,100.00
2023-01-18T18:57:42.201Z,100.00
2023-01-18T19:00:11.978Z,100.00
2023-01-18T19:02:47.619Z,100.00
2023-01-18T19:05:15.605Z,100.00
2023-01-18T19:07:48.102Z,100.00
2023-01-18T19:10:15.470Z,100.00
2023-01-18T19:12:44.940Z,100.00
2023-01-18T19:15:16.910Z,100.00
2023-01-18T19:17:43.672Z,100.00
2023-01-18T19:20:13.970Z,100.00
2023-01-18T19:22:40.733Z,100.00
2023-01-18T19:25:11.058Z,100.00
2023-01-18T19:27:37.981Z,100.00
2023-01-18T19:30:15.476Z,100.00
2023-01-18T19:32:55.755Z,100.00
2023-01-18T19:35:30.599Z,100.00
2023-01-18T19:38:01.120Z,100.00
2023-01-18T19:40:30.593Z,100.00
2023-01-18T19:43:00.910Z,100.00
2023-01-18T19:46:15.727Z,100.00
2023-01-18T19:49:06.729Z,100.00
2023-01-18T19:51:57.940Z,100.00
2023-01-18T19:54:35.444Z,100.00
2023-01-18T19:57:18.256Z,100.00
2023-01-18T20:00:00.613Z,100.00
2023-01-18T20:05:34.393Z,100.00
2023-01-18T20:15:11.478Z,100.00
2023-01-18T20:21:39.319Z,100.00
2023-01-18T20:24:43.462Z,100.00
2023-01-18T20:27:53.623Z,100.00
2023-01-18T20:30:46.568Z,100.00
2023-01-18T20:37:00.898Z,100.00
2023-01-18T20:40:04.881Z,100.00
2023-01-18T20:42:37.641Z,100.00
2023-01-18T20:45:07.536Z,100.00
2023-01-18T20:47:34.775Z,100.00
2023-01-18T20:50:16.540Z,100.00
2023-01-18T20:52:55.933Z,100.00
2023-01-18T21:02:26.475Z,100.00
2023-01-18T21:05:04.223Z,100.00
2023-01-18T21:07:59.554Z,100.00
2023-01-18T21:10:38.855Z,100.00
2023-01-18T21:13:17.067Z,100.00
2023-01-18T21:16:28.884Z,100.00
2023-01-18T21:19:13.846Z,100.00
2023-01-18T21:22:10.256Z,100.00
2023-01-18T21:24:44.822Z,100.00
2023-01-18T21:27:18.681Z,100.00
2023-01-18T21:29:45.971Z,100.00
2023-01-18T21:32:25.800Z,100.00
2023-01-18T21:34:55.806Z,100.00
2023-01-18T21:37:30.892Z,100.00
2023-01-18T21:40:06.310Z,100.00
2023-01-18T21:43:02.202Z,100.00
2023-01-18T21:45:47.399Z,100.00
2023-01-18T21:48:14.257Z,100.00
2023-01-18T21:54:01.396Z,100.00
2023-01-18T21:56:31.279Z,100.00
2023-01-18T21:59:00.432Z,100.00
2023-01-18T22:01:38.655Z,100.00
2023-01-18T22:04:27.359Z,100.00
2023-01-18T22:06:54.218Z,100.00
2023-01-18T22:09:21.264Z,100.00
2023-01-18T22:11:48.266Z,100.00
2023-01-18T22:14:15.852Z,100.00
2023-01-18T22:16:42.501Z,100.00
2023-01-18T22:19:20.717Z,100.00
2023-01-18T22:21:49.982Z,100.00
2023-01-18T22:24:17.654Z,100.00
2023-01-18T22:26:45.440Z,100.00
2023-01-18T22:29:12.593Z,100.00
2023-01-18T22:31:39.567Z,100.00
2023-01-18T22:34:07.510Z,100.00
2023-01-18T22:36:34.361Z,100.00
2023-01-18T22:39:01.056Z,100.00
2023-01-18T22:41:29.042Z,100.00
2023-01-18T22:43:56.441Z,100.00
2023-01-18T22:46:23.964Z,100.00
2023-01-18T22:48:51.008Z,100.00
2023-01-18T22:51:20.057Z,100.00
2023-01-18T22:53:46.542Z,100.00
2023-01-18T22:56:14.073Z,100.00
2023-01-18T22:58:40.521Z,100.00
2023-01-18T23:01:25.189Z,100.00
2023-01-18T23:03:53.443Z,100.00
2023-01-18T23:06:20.786Z,100.00
2023-01-18T23:08:47.958Z,100.00
2023-01-18T23:11:17.918Z,100.00
2023-01-18T23:14:07.055Z,100.00
2023-01-18T23:16:52.135Z,100.00
2023-01-18T23:19:19.181Z,100.00
2023-01-18T23:21:45.990Z,100.00
2023-01-18T23:24:12.686Z,100.00
2023-01-18T23:26:39.378Z,100.00
2023-01-18T23:29:05.859Z,100.00
2023-01-18T23:31:32.229Z,100.00
2023-01-18T23:33:58.662Z,100.00
2023-01-18T23:36:25.148Z,100.00
2023-01-18T23:39:10.288Z,100.00
2023-01-18T23:41:55.556Z,100.00
2023-01-18T23:44:40.663Z,100.00
2023-01-18T23:47:25.564Z,100.00
2023-01-18T23:50:10.529Z,100.00
2023-01-18T23:52:55.327Z,100.00
2023-01-18T23:55:21.832Z,100.00
2023-01-18T23:57:48.251Z,100.00
